Terminal Aerodrome Forecast
Issued by NWS

Home | Current Version | Previous Version | Text Only | Print | Product List | Glossary On
Versions: 1 2 3 4 5 6 7 8 9 10 11 12 13 14 15 16 17
788
FTUS46 KMFR 051742
TAFLMT
TAF
KLMT 051742Z 0518/0618 12005KT P6SM SCT010 BKN100
     FM052100 21006KT P6SM BKN080
     FM060300 20010KT P6SM VCSH BKN030 OVC040
     FM060600 18005KT 4SM BR SCT007 OVC015
     FM060900 VRB02KT 1SM BR OVC002=

USA.gov is the U.S. government's official web portal to all federal, state and local government web resources and services.